createdAt,value
2023-12-11T00:03:08.059Z,3.45
2023-12-11T00:08:11.771Z,3.44
2023-12-11T00:13:15.465Z,3.46
2023-12-11T00:18:21.595Z,3.49
2023-12-11T00:23:24.990Z,3.48
2023-12-11T00:28:48.760Z,3.45
2023-12-11T00:33:55.591Z,3.41
2023-12-11T00:38:59.460Z,3.39
2023-12-11T00:44:03.269Z,3.38
2023-12-11T00:49:18.730Z,3.39
2023-12-11T00:54:42.765Z,3.39
2023-12-11T00:59:46.101Z,3.40
2023-12-11T01:04:50.233Z,3.42
2023-12-11T01:09:53.542Z,3.44
2023-12-11T01:14:57.668Z,3.46
2023-12-11T01:20:01.031Z,3.47
2023-12-11T01:25:05.496Z,3.51
2023-12-11T01:30:09.324Z,3.52
2023-12-11T01:35:13.162Z,3.51
2023-12-11T01:40:19.215Z,3.50
2023-12-11T01:45:23.068Z,3.50
2023-12-11T01:50:28.762Z,3.50
2023-12-11T01:55:34.276Z,3.52
2023-12-11T02:00:41.548Z,3.51
2023-12-11T02:05:46.273Z,3.51
2023-12-11T02:10:57.577Z,3.48
2023-12-11T02:16:00.947Z,3.47
2023-12-11T02:21:04.521Z,3.45
2023-12-11T02:26:12.224Z,3.44
2023-12-11T02:31:18.241Z,3.41
2023-12-11T02:36:21.647Z,3.42
2023-12-11T02:41:25.108Z,3.45
2023-12-11T02:46:36.433Z,3.46
2023-12-11T02:51:40.548Z,3.46
2023-12-11T02:56:43.888Z,3.47
2023-12-11T03:01:47.722Z,3.48
2023-12-11T03:06:53.756Z,3.46
2023-12-11T03:11:57.131Z,3.48
2023-12-11T03:17:00.593Z,3.49
2023-12-11T03:22:09.484Z,3.50
2023-12-11T03:27:18.235Z,3.52
2023-12-11T03:32:21.637Z,3.55
2023-12-11T03:37:25.455Z,3.60
2023-12-11T03:42:28.900Z,3.64
2023-12-11T03:47:33.268Z,3.72
2023-12-11T03:52:47.262Z,3.84
2023-12-11T03:57:56.168Z,3.91
2023-12-11T04:03:00.213Z,3.96
2023-12-11T04:08:09.233Z,4.04
2023-12-11T04:13:12.817Z,4.12
2023-12-11T04:18:16.536Z,4.21
2023-12-11T04:23:34.252Z,4.28
2023-12-11T04:28:40.423Z,4.34
2023-12-11T04:38:47.884Z,4.51
2023-12-11T04:43:51.669Z,4.57
2023-12-11T04:48:55.433Z,4.70
2023-12-11T04:54:10.528Z,4.85
2023-12-11T04:59:19.193Z,4.92
2023-12-11T05:10:46.971Z,4.91
2023-12-11T05:15:50.439Z,4.96
2023-12-11T05:20:54.414Z,5.00
2023-12-11T05:25:58.937Z,5.01
2023-12-11T05:31:02.796Z,5.03
2023-12-11T05:36:06.854Z,5.07
2023-12-11T05:41:10.252Z,5.09
2023-12-11T05:46:14.047Z,5.09
2023-12-11T05:51:17.983Z,5.09
2023-12-11T05:56:21.904Z,5.10
2023-12-11T06:01:27.366Z,5.13
2023-12-11T06:06:32.049Z,5.16
2023-12-11T06:11:35.827Z,5.14
2023-12-11T06:16:39.330Z,5.20
2023-12-11T06:21:43.585Z,5.30
2023-12-11T06:26:46.964Z,5.32
2023-12-11T06:31:50.277Z,5.34
2023-12-11T06:36:54.154Z,5.31
2023-12-11T06:41:59.787Z,5.32
2023-12-11T06:47:05.711Z,5.33
2023-12-11T06:52:14.384Z,5.33
2023-12-11T06:57:20.965Z,5.34
2023-12-11T07:02:28.368Z,5.36
2023-12-11T07:08:02.460Z,5.37
2023-12-11T07:13:10.016Z,5.42
2023-12-11T07:18:15.503Z,5.45
2023-12-11T07:23:19.386Z,5.52
2023-12-11T07:28:22.863Z,5.57
2023-12-11T07:33:27.460Z,5.58
2023-12-11T07:38:38.239Z,5.58
2023-12-11T07:43:44.708Z,5.53
2023-12-11T07:48:48.413Z,5.53
2023-12-11T07:54:07.019Z,5.53
2023-12-11T07:59:11.597Z,5.54
2023-12-11T08:04:15.253Z,5.56
2023-12-11T08:09:21.758Z,5.66
2023-12-11T08:14:25.856Z,5.77
2023-12-11T08:19:48.755Z,5.86
2023-12-11T08:24:52.624Z,5.98
2023-12-11T08:29:55.848Z,6.03
2023-12-11T08:35:04.880Z,6.13
2023-12-11T08:40:09.738Z,6.19
2023-12-11T08:45:35.755Z,6.26
2023-12-11T08:50:39.248Z,6.32
2023-12-11T08:55:43.184Z,6.35
2023-12-11T09:00:47.368Z,6.39
2023-12-11T09:05:50.793Z,6.45
2023-12-11T09:10:56.791Z,6.52
2023-12-11T09:16:04.465Z,6.59
2023-12-11T09:21:08.107Z,6.67
2023-12-11T09:26:12.137Z,6.83
2023-12-11T09:31:16.008Z,7.02
2023-12-11T09:36:20.999Z,7.12
2023-12-11T09:41:24.807Z,7.16
2023-12-11T09:46:31.355Z,7.22
2023-12-11T09:51:34.994Z,7.36
2023-12-11T09:56:40.459Z,7.46
2023-12-11T10:01:44.664Z,7.47
2023-12-11T10:06:53.901Z,7.41
2023-12-11T10:12:05.379Z,7.33
2023-12-11T10:17:18.332Z,7.21
2023-12-11T10:22:31.833Z,7.12
2023-12-11T10:27:35.758Z,7.04
2023-12-11T10:32:48.725Z,6.99
2023-12-11T10:37:52.236Z,6.96
2023-12-11T10:43:01.839Z,6.93
2023-12-11T10:48:05.890Z,6.88
2023-12-11T10:53:09.974Z,6.83
2023-12-11T10:58:13.899Z,6.87
2023-12-11T11:03:21.747Z,6.90
2023-12-11T11:08:56.561Z,6.88
2023-12-11T11:14:19.245Z,6.87
2023-12-11T11:19:31.806Z,6.86
2023-12-11T11:24:36.748Z,6.86
2023-12-11T11:29:45.030Z,6.91
2023-12-11T11:34:48.788Z,6.95
2023-12-11T11:40:04.936Z,6.94
2023-12-11T11:45:29.568Z,6.90
2023-12-11T11:50:36.620Z,6.86
2023-12-11T11:55:41.978Z,6.81
2023-12-11T12:01:06.349Z,6.74
2023-12-11T12:06:22.479Z,6.62
2023-12-11T12:11:28.317Z,6.54
2023-12-11T12:16:36.311Z,6.47
2023-12-11T12:22:07.187Z,6.44
2023-12-11T12:27:14.416Z,6.40
2023-12-11T12:32:21.418Z,6.36
2023-12-11T12:37:26.573Z,6.29
2023-12-11T12:42:34.101Z,6.23
2023-12-11T12:48:00.142Z,6.18
2023-12-11T12:53:15.351Z,6.10
2023-12-11T12:58:26.812Z,6.02
2023-12-11T13:03:39.122Z,5.98
2023-12-11T13:08:53.099Z,5.96
2023-12-11T13:13:59.260Z,5.92
2023-12-11T13:19:03.823Z,5.86
2023-12-11T13:24:11.336Z,5.82
2023-12-11T13:29:15.229Z,5.80
2023-12-11T13:34:18.739Z,5.77
2023-12-11T13:39:30.982Z,5.74
2023-12-11T13:44:34.366Z,5.70
2023-12-11T13:49:37.888Z,5.68
2023-12-11T13:54:44.482Z,5.66
2023-12-11T13:59:50.821Z,5.64
2023-12-11T14:04:55.013Z,5.63
2023-12-11T14:10:10.290Z,5.62
2023-12-11T14:15:16.996Z,5.59
2023-12-11T14:20:20.515Z,5.57
2023-12-11T14:25:26.343Z,5.56
2023-12-11T14:30:29.799Z,5.55
2023-12-11T14:35:37.568Z,5.53
2023-12-11T14:40:41.169Z,5.51
2023-12-11T14:45:45.884Z,5.49
2023-12-11T14:50:49.784Z,5.46
2023-12-11T14:55:55.484Z,5.45
2023-12-11T15:00:59.255Z,5.45
2023-12-11T15:06:03.972Z,5.45
2023-12-11T15:11:09.989Z,5.44
2023-12-11T15:16:14.248Z,5.43
2023-12-11T15:21:20.456Z,5.42
2023-12-11T15:26:23.708Z,5.45
2023-12-11T15:31:30.438Z,5.50
2023-12-11T15:36:33.877Z,5.55
2023-12-11T15:41:37.426Z,5.60
2023-12-11T15:46:46.937Z,5.68
2023-12-11T15:52:08.490Z,5.73
2023-12-11T15:57:13.594Z,5.76
2023-12-11T16:02:17.388Z,5.74
2023-12-11T16:07:24.404Z,5.70
2023-12-11T16:12:33.430Z,5.66
2023-12-11T16:17:46.509Z,5.64
2023-12-11T16:22:50.507Z,5.66
2023-12-11T16:27:57.138Z,5.65
2023-12-11T16:33:04.509Z,5.64
2023-12-11T16:38:11.244Z,5.63
2023-12-11T16:43:19.200Z,5.62
2023-12-11T16:48:23.527Z,5.62
2023-12-11T16:53:30.552Z,5.62
2023-12-11T16:58:34.420Z,5.63
2023-12-11T17:03:39.246Z,5.64
2023-12-11T17:08:58.936Z,5.64
2023-12-11T17:14:13.175Z,5.64
2023-12-11T17:19:20.044Z,5.64
2023-12-11T17:24:24.954Z,5.64
2023-12-11T17:29:36.207Z,5.64
2023-12-11T17:34:48.899Z,5.62
2023-12-11T17:39:54.949Z,5.60
2023-12-11T17:45:54.767Z,5.59
2023-12-11T17:51:19.843Z,5.59
2023-12-11T17:56:26.890Z,5.60
2023-12-11T18:01:34.096Z,5.58
2023-12-11T18:06:41.165Z,5.60
2023-12-11T18:11:45.381Z,5.66
2023-12-11T18:16:49.657Z,5.69
2023-12-11T18:21:53.585Z,5.74
2023-12-11T18:26:57.234Z,5.76
2023-12-11T18:32:00.754Z,5.78
2023-12-11T18:37:06.470Z,5.79
2023-12-11T18:42:13.472Z,5.80
2023-12-11T18:47:24.836Z,5.82
2023-12-11T18:52:31.391Z,5.99
2023-12-11T18:57:44.108Z,6.10
2023-12-11T19:02:49.720Z,6.20
2023-12-11T19:07:54.035Z,6.25
2023-12-11T19:13:19.712Z,6.30
2023-12-11T19:18:26.086Z,6.35
2023-12-11T19:23:37.447Z,6.37
2023-12-11T19:28:57.941Z,6.36
2023-12-11T19:34:17.919Z,6.35
2023-12-11T19:39:33.519Z,6.34
2023-12-11T19:45:16.062Z,6.32
2023-12-11T19:50:35.846Z,6.28
2023-12-11T19:55:48.329Z,6.26
2023-12-11T20:01:34.683Z,6.23
2023-12-11T20:06:44.527Z,6.20
2023-12-11T20:12:17.698Z,6.17
2023-12-11T20:17:42.834Z,6.16
2023-12-11T20:22:54.600Z,6.14
2023-12-11T20:28:27.940Z,6.13
2023-12-11T20:33:32.390Z,6.12
2023-12-11T20:39:08.278Z,6.09
2023-12-11T20:44:45.612Z,6.07
2023-12-11T20:50:05.531Z,6.04
2023-12-11T20:55:12.832Z,5.95
2023-12-11T21:00:20.102Z,5.84
2023-12-11T21:05:24.101Z,5.71
2023-12-11T21:10:43.394Z,5.63
2023-12-11T21:15:59.931Z,5.58
2023-12-11T21:21:21.476Z,5.55
2023-12-11T21:26:30.487Z,5.53
2023-12-11T21:31:40.714Z,5.53
2023-12-11T21:36:44.917Z,5.55
2023-12-11T21:41:48.465Z,5.56
2023-12-11T21:47:00.326Z,5.58
2023-12-11T21:52:35.895Z,5.61
2023-12-11T21:58:02.088Z,5.64
2023-12-11T22:03:08.307Z,5.68
2023-12-11T22:08:14.812Z,5.69
2023-12-11T22:13:24.263Z,5.69
2023-12-11T22:18:47.564Z,5.68
2023-12-11T22:24:27.427Z,5.68
2023-12-11T22:29:31.880Z,5.68
2023-12-11T22:34:46.188Z,5.67
2023-12-11T22:39:50.333Z,5.66
2023-12-11T22:44:57.118Z,5.64
2023-12-11T22:50:01.135Z,5.64
2023-12-11T22:55:09.050Z,5.63
2023-12-11T23:00:29.365Z,5.60
2023-12-11T23:05:45.435Z,5.56
2023-12-11T23:11:05.931Z,5.54
2023-12-11T23:16:32.898Z,5.51
2023-12-11T23:21:40.677Z,5.50
2023-12-11T23:26:51.969Z,5.49
2023-12-11T23:32:26.727Z,5.45
2023-12-11T23:37:56.709Z,5.42
2023-12-11T23:43:19.533Z,5.40
2023-12-11T23:48:26.356Z,5.38
2023-12-11T23:53:31.253Z,5.37
2023-12-11T23:59:09.031Z,5.36
